createdAt,value
2018-08-11T00:00:10.449Z,15.42
2018-08-11T00:03:12.744Z,15.47
2018-08-11T00:06:15.004Z,15.38
2018-08-11T00:09:17.392Z,15.33
2018-08-11T00:12:19.694Z,15.32
2018-08-11T00:15:22.020Z,15.31
2018-08-11T00:18:24.319Z,15.19
2018-08-11T00:21:26.570Z,15.13
2018-08-11T00:24:29.234Z,14.95
2018-08-11T00:27:31.772Z,14.67
2018-08-11T00:30:34.037Z,14.55
2018-08-11T00:33:36.276Z,14.49
2018-08-11T00:36:38.586Z,14.39
2018-08-11T00:39:40.817Z,14.33
2018-08-11T00:42:44.433Z,14.11
2018-08-11T00:45:46.777Z,13.87
2018-08-11T00:48:50.134Z,13.67
2018-08-11T00:51:52.341Z,13.75
2018-08-11T00:54:54.572Z,13.83
2018-08-11T00:57:56.949Z,13.92
2018-08-11T01:00:59.275Z,14.09
2018-08-11T01:04:01.619Z,14.06
2018-08-11T01:07:04.044Z,14.04
2018-08-11T01:10:06.949Z,14.03
2018-08-11T01:13:09.181Z,14.00
2018-08-11T01:16:11.545Z,14.02
2018-08-11T01:19:13.913Z,14.19
2018-08-11T01:22:16.180Z,14.26
2018-08-11T01:25:18.505Z,14.20
2018-08-11T01:28:20.811Z,14.27
2018-08-11T01:31:23.220Z,14.31
2018-08-11T01:34:25.498Z,14.37
2018-08-11T01:37:27.937Z,14.41
2018-08-11T01:40:30.475Z,14.30
2018-08-11T01:43:32.798Z,14.32
2018-08-11T01:46:35.130Z,14.33
2018-08-11T01:49:37.317Z,14.36
2018-08-11T01:52:41.408Z,14.40
2018-08-11T01:55:43.629Z,14.47
2018-08-11T01:58:45.939Z,14.58
2018-08-11T02:01:48.228Z,14.72
2018-08-11T02:04:50.640Z,14.82
2018-08-11T02:07:52.981Z,14.86
2018-08-11T02:10:55.277Z,14.83
2018-08-11T02:13:57.628Z,14.78
2018-08-11T02:16:59.904Z,14.82
2018-08-11T02:20:02.131Z,14.84
2018-08-11T02:23:04.362Z,14.90
2018-08-11T02:26:06.624Z,14.87
2018-08-11T02:29:08.891Z,14.92
2018-08-11T02:32:11.106Z,14.88
2018-08-11T02:35:13.799Z,15.08
2018-08-11T02:38:16.053Z,15.33
2018-08-11T02:41:18.329Z,15.42
2018-08-11T02:44:20.760Z,15.54
2018-08-11T02:47:22.984Z,15.73
2018-08-11T02:50:25.193Z,15.84
2018-08-11T02:53:27.468Z,15.87
2018-08-11T02:56:29.907Z,15.87
2018-08-11T02:59:32.162Z,15.84
2018-08-11T03:02:34.820Z,15.87
2018-08-11T03:05:37.035Z,15.97
2018-08-11T03:08:39.243Z,15.99
2018-08-11T03:11:41.548Z,16.00
2018-08-11T03:14:43.747Z,16.04
2018-08-11T03:17:46.123Z,15.97
2018-08-11T03:20:48.420Z,15.99
2018-08-11T03:23:50.616Z,15.98
2018-08-11T03:26:53.478Z,15.98
2018-08-11T03:29:55.716Z,16.03
2018-08-11T03:32:57.988Z,15.95
2018-08-11T03:36:00.466Z,15.96
2018-08-11T03:39:03.059Z,15.93
2018-08-11T03:49:36.872Z,15.75
2018-08-11T03:52:40.122Z,15.78
2018-08-11T03:55:42.399Z,15.70
2018-08-11T03:58:44.621Z,15.66
2018-08-11T04:01:46.888Z,15.67
2018-08-11T04:04:49.955Z,15.74
2018-08-11T04:07:52.306Z,15.80
2018-08-11T04:10:54.482Z,15.81
2018-08-11T04:13:56.673Z,15.84
2018-08-11T04:16:58.940Z,15.78
2018-08-11T04:20:01.111Z,15.70
2018-08-11T04:23:03.420Z,15.68
2018-08-11T04:26:05.609Z,15.66
2018-08-11T04:29:08.401Z,15.73
2018-08-11T04:32:10.606Z,15.75
2018-08-11T04:35:12.926Z,15.72
2018-08-11T04:38:15.225Z,15.70
2018-08-11T04:41:17.423Z,15.60
2018-08-11T04:44:19.733Z,15.65
2018-08-11T04:47:22.004Z,15.77
2018-08-11T04:50:24.336Z,15.94
2018-08-11T04:53:26.506Z,16.09
2018-08-11T04:56:28.672Z,16.20
2018-08-11T04:59:30.946Z,16.17
2018-08-11T05:02:33.108Z,16.13
2018-08-11T05:05:35.324Z,16.14
2018-08-11T05:08:37.600Z,16.22
2018-08-11T05:11:39.885Z,16.20
2018-08-11T05:14:42.223Z,15.98
2018-08-11T05:17:44.532Z,15.90
2018-08-11T05:20:46.808Z,15.64
2018-08-11T05:23:49.106Z,15.40
2018-08-11T05:26:51.329Z,15.24
2018-08-11T05:29:53.680Z,15.30
2018-08-11T05:32:55.905Z,15.43
2018-08-11T05:35:58.402Z,15.62
2018-08-11T05:39:00.716Z,15.91
2018-08-11T05:42:03.040Z,16.07
2018-08-11T05:45:05.280Z,16.27
2018-08-11T05:48:07.566Z,18.23
2018-08-11T05:51:09.822Z,18.44
2018-08-11T05:54:12.028Z,17.14
2018-08-11T05:57:14.284Z,17.24
2018-08-11T06:00:16.610Z,17.13
2018-08-11T06:03:19.053Z,17.17
2018-08-11T06:06:22.612Z,17.13
2018-08-11T06:09:24.904Z,16.81
2018-08-11T06:12:27.101Z,17.41
2018-08-11T06:15:29.375Z,18.04
2018-08-11T06:18:31.947Z,18.26
2018-08-11T06:21:34.546Z,18.16
2018-08-11T06:24:36.780Z,18.96
2018-08-11T06:27:39.452Z,18.96
2018-08-11T06:30:41.755Z,19.58
2018-08-11T06:33:44.175Z,19.89
2018-08-11T06:36:46.408Z,19.36
2018-08-11T06:39:48.616Z,19.48
2018-08-11T06:42:50.955Z,19.32
2018-08-11T06:45:53.182Z,19.65
2018-08-11T06:48:56.967Z,19.86
2018-08-11T06:51:59.237Z,19.90
2018-08-11T06:55:01.551Z,19.84
2018-08-11T06:58:03.734Z,19.81
2018-08-11T07:01:05.947Z,19.43
2018-08-11T07:04:08.183Z,19.74
2018-08-11T07:07:10.417Z,19.76
2018-08-11T07:10:12.641Z,19.19
2018-08-11T07:13:14.942Z,18.30
2018-08-11T07:16:17.260Z,17.99
2018-08-11T07:19:19.472Z,18.13
2018-08-11T07:22:21.755Z,19.40
2018-08-11T07:25:24.054Z,18.74
2018-08-11T07:28:26.828Z,19.51
2018-08-11T07:31:29.069Z,19.70
2018-08-11T07:34:31.428Z,19.56
2018-08-11T07:37:33.784Z,20.05
2018-08-11T07:40:36.126Z,19.88
2018-08-11T07:43:38.421Z,20.01
2018-08-11T07:46:40.665Z,20.13
2018-08-11T07:49:42.950Z,19.28
2018-08-11T07:52:45.196Z,19.55
2018-08-11T07:55:47.485Z,19.86
2018-08-11T07:58:49.741Z,19.50
2018-08-11T08:01:52.049Z,19.39
2018-08-11T08:04:55.545Z,19.71
2018-08-11T08:07:57.825Z,19.66
2018-08-11T08:11:00.166Z,19.14
2018-08-11T08:14:02.535Z,19.52
2018-08-11T08:17:05.023Z,19.39
2018-08-11T08:20:07.322Z,19.63
2018-08-11T08:23:09.532Z,19.98
2018-08-11T08:26:11.842Z,19.37
2018-08-11T08:29:14.203Z,19.39
2018-08-11T08:32:16.473Z,19.55
2018-08-11T08:35:18.675Z,18.95
2018-08-11T08:38:20.868Z,19.41
2018-08-11T08:41:23.094Z,19.31
2018-08-11T08:44:25.331Z,19.93
2018-08-11T08:47:28.579Z,19.95
2018-08-11T08:50:30.800Z,20.10
2018-08-11T08:53:33.064Z,20.41
2018-08-11T08:56:35.331Z,20.13
2018-08-11T08:59:37.614Z,20.09
2018-08-11T09:02:39.975Z,20.26
2018-08-11T09:05:42.256Z,20.42
2018-08-11T09:08:44.699Z,21.02
2018-08-11T09:11:59.305Z,20.98
2018-08-11T09:15:01.640Z,20.72
2018-08-11T09:18:04.419Z,20.91
2018-08-11T09:21:07.909Z,21.14
2018-08-11T09:24:10.604Z,21.01
2018-08-11T09:27:13.064Z,20.90
2018-08-11T09:30:15.598Z,20.22
2018-08-11T09:33:17.864Z,19.52
2018-08-11T09:36:20.142Z,19.95
2018-08-11T09:39:22.424Z,20.17
2018-08-11T09:42:24.761Z,20.76
2018-08-11T09:45:27.004Z,21.15
2018-08-11T09:48:29.309Z,21.02
2018-08-11T09:51:31.631Z,21.12
2018-08-11T09:54:33.908Z,21.25
2018-08-11T09:57:36.404Z,20.88
2018-08-11T10:00:44.324Z,21.81
2018-08-11T10:03:46.554Z,21.86
2018-08-11T10:06:48.881Z,21.26
2018-08-11T10:09:51.090Z,20.69
2018-08-11T10:12:53.398Z,21.19
2018-08-11T10:15:55.756Z,21.06
2018-08-11T10:18:58.044Z,21.60
2018-08-11T10:22:00.345Z,21.54
2018-08-11T10:25:02.644Z,21.30
2018-08-11T10:28:04.956Z,21.63
2018-08-11T10:31:07.216Z,22.13
2018-08-11T10:34:09.468Z,21.75
2018-08-11T10:37:11.689Z,21.51
2018-08-11T10:40:15.615Z,21.26
2018-08-11T10:43:23.175Z,21.53
2018-08-11T10:46:25.413Z,22.14
2018-08-11T10:49:27.614Z,21.95
2018-08-11T10:52:29.892Z,22.08
2018-08-11T10:55:32.267Z,22.26
2018-08-11T10:58:34.673Z,22.00
2018-08-11T11:01:37.064Z,21.87
2018-08-11T11:04:40.597Z,22.07
2018-08-11T11:07:42.857Z,21.69
2018-08-11T11:10:45.156Z,21.27
2018-08-11T11:13:47.413Z,21.96
2018-08-11T11:16:49.725Z,21.69
2018-08-11T11:19:51.985Z,21.47
2018-08-11T11:22:54.228Z,21.37
2018-08-11T11:25:56.568Z,21.14
2018-08-11T11:28:59.728Z,21.68
2018-08-11T11:32:02.244Z,21.55
2018-08-11T11:35:04.983Z,22.04
2018-08-11T11:38:07.267Z,21.64
2018-08-11T11:41:10.243Z,21.58
2018-08-11T11:44:12.464Z,22.05
2018-08-11T11:47:15.914Z,22.15
2018-08-11T11:50:18.142Z,22.16
2018-08-11T11:53:20.472Z,22.75
2018-08-11T11:56:22.823Z,23.25
2018-08-11T11:59:25.074Z,23.61
2018-08-11T12:02:27.394Z,23.14
2018-08-11T12:05:29.883Z,23.38
2018-08-11T12:08:32.231Z,23.27
2018-08-11T12:11:35.114Z,22.34
2018-08-11T12:14:37.374Z,22.85
2018-08-11T12:17:39.576Z,23.03
2018-08-11T12:20:41.813Z,23.22
2018-08-11T12:23:44.126Z,23.81
2018-08-11T12:26:46.384Z,23.79
2018-08-11T12:29:48.632Z,23.04
2018-08-11T12:32:51.832Z,22.54
2018-08-11T12:35:54.060Z,22.80
2018-08-11T12:38:56.340Z,22.47
2018-08-11T12:41:58.611Z,22.50
2018-08-11T12:45:00.869Z,22.76
2018-08-11T12:48:03.122Z,22.68
2018-08-11T12:51:05.401Z,23.14
2018-08-11T12:54:07.771Z,23.83
2018-08-11T12:57:10.921Z,23.00
2018-08-11T13:00:13.234Z,23.22
2018-08-11T13:03:15.690Z,22.73
2018-08-11T13:06:18.037Z,24.09
2018-08-11T13:09:20.344Z,24.07
2018-08-11T13:12:23.284Z,23.56
2018-08-11T13:15:26.661Z,23.80
2018-08-11T13:18:28.857Z,24.45
2018-08-11T13:21:31.079Z,23.69
2018-08-11T13:24:33.444Z,23.88
2018-08-11T13:27:35.690Z,24.26
2018-08-11T13:30:37.897Z,23.87
2018-08-11T13:33:40.199Z,23.82
2018-08-11T13:36:42.537Z,23.95
2018-08-11T13:39:47.072Z,23.87
2018-08-11T13:42:49.385Z,24.02
2018-08-11T13:45:51.674Z,24.13
2018-08-11T13:48:53.976Z,24.11
2018-08-11T13:51:56.197Z,23.64
2018-08-11T13:54:58.431Z,24.31
2018-08-11T13:58:01.405Z,24.62
2018-08-11T14:01:03.655Z,24.78
2018-08-11T14:04:06.012Z,24.70
2018-08-11T14:07:08.243Z,24.05
2018-08-11T14:10:11.076Z,25.04
2018-08-11T14:13:13.331Z,24.93
2018-08-11T14:16:15.769Z,23.94
2018-08-11T14:19:18.097Z,23.89
2018-08-11T14:22:20.362Z,24.62
2018-08-11T14:25:22.938Z,23.92
2018-08-11T14:28:25.201Z,23.65
2018-08-11T14:31:27.592Z,24.74
2018-08-11T14:34:29.852Z,24.30
2018-08-11T14:37:32.102Z,23.27
2018-08-11T14:40:34.355Z,22.65
2018-08-11T14:43:36.668Z,23.91
2018-08-11T14:46:39.401Z,24.66
2018-08-11T14:49:41.663Z,23.64
2018-08-11T14:52:43.942Z,23.11
2018-08-11T14:55:46.201Z,22.88
2018-08-11T14:58:48.416Z,24.36
2018-08-11T15:01:50.677Z,25.25
2018-08-11T15:04:53.150Z,25.04
2018-08-11T15:07:55.412Z,25.48
2018-08-11T15:10:57.648Z,25.47
2018-08-11T15:13:59.879Z,24.67
2018-08-11T15:17:02.286Z,24.51
2018-08-11T15:20:05.838Z,23.93
2018-08-11T15:23:08.049Z,23.88
2018-08-11T15:26:10.394Z,24.56
2018-08-11T15:29:12.657Z,24.63
2018-08-11T15:32:15.030Z,24.61
2018-08-11T15:35:18.012Z,24.95
2018-08-11T15:38:20.220Z,25.83
2018-08-11T15:41:22.407Z,25.92
2018-08-11T15:44:24.641Z,25.92
2018-08-11T15:47:27.848Z,25.72
2018-08-11T15:50:30.128Z,25.57
2018-08-11T15:53:32.397Z,25.33
2018-08-11T15:56:34.708Z,25.36
2018-08-11T15:59:37.798Z,25.46
2018-08-11T16:02:40.039Z,25.65
2018-08-11T16:05:42.292Z,25.50
2018-08-11T16:08:44.605Z,25.10
2018-08-11T16:11:46.927Z,24.02
2018-08-11T16:14:49.359Z,23.54
2018-08-11T16:17:51.596Z,23.25
2018-08-11T16:20:53.928Z,23.58
2018-08-11T16:23:56.224Z,23.28
2018-08-11T16:26:58.487Z,23.25
2018-08-11T16:30:00.893Z,24.36
2018-08-11T16:33:03.328Z,24.92
2018-08-11T16:36:05.849Z,25.61
2018-08-11T16:39:08.733Z,25.83
2018-08-11T16:42:10.968Z,25.27
2018-08-11T16:45:13.179Z,24.59
2018-08-11T16:48:15.460Z,24.33
2018-08-11T16:51:17.795Z,24.36
2018-08-11T16:54:20.087Z,24.25
2018-08-11T16:57:22.872Z,24.06
2018-08-11T17:00:25.168Z,24.01
2018-08-11T17:03:27.430Z,24.06
2018-08-11T17:06:30.684Z,23.89
2018-08-11T17:09:33.061Z,24.33
2018-08-11T17:12:37.531Z,23.66
2018-08-11T17:15:39.809Z,23.70
2018-08-11T17:18:42.014Z,23.48
2018-08-11T17:21:44.298Z,23.35
2018-08-11T17:24:46.572Z,23.24
2018-08-11T17:27:52.988Z,23.08
2018-08-11T17:30:55.314Z,22.98
2018-08-11T17:34:00.673Z,22.97
2018-08-11T17:37:02.894Z,23.02
2018-08-11T17:40:05.797Z,23.19
2018-08-11T17:43:08.124Z,23.44
2018-08-11T17:46:10.395Z,23.66
2018-08-11T17:49:13.236Z,23.71
2018-08-11T17:52:19.511Z,24.30
2018-08-11T17:55:21.756Z,24.38
2018-08-11T17:58:23.944Z,23.92
2018-08-11T18:01:26.798Z,23.45
2018-08-11T18:04:28.981Z,22.94
2018-08-11T18:07:31.320Z,22.62
2018-08-11T18:10:33.849Z,22.38
2018-08-11T18:13:36.636Z,22.11
2018-08-11T18:16:41.388Z,21.91
2018-08-11T18:19:43.625Z,21.83
2018-08-11T18:22:46.006Z,21.88
2018-08-11T18:25:48.298Z,21.78
2018-08-11T18:28:50.565Z,21.74
2018-08-11T18:31:52.918Z,21.69
2018-08-11T18:34:55.190Z,21.55
2018-08-11T18:37:57.485Z,21.42
2018-08-11T18:40:59.694Z,21.07
2018-08-11T18:44:02.000Z,20.85
2018-08-11T18:47:04.413Z,20.59
2018-08-11T18:50:06.639Z,20.22
2018-08-11T18:53:09.075Z,19.76
2018-08-11T18:56:11.346Z,19.30
2018-08-11T18:59:13.551Z,18.85
2018-08-11T19:02:15.812Z,18.45
2018-08-11T19:05:18.088Z,18.11
2018-08-11T19:08:20.389Z,17.84
2018-08-11T19:11:22.710Z,17.60
2018-08-11T19:14:25.071Z,17.41
2018-08-11T19:17:27.413Z,17.22
2018-08-11T19:20:29.778Z,17.07
2018-08-11T19:23:32.532Z,16.88
2018-08-11T19:26:37.410Z,16.74
2018-08-11T19:29:40.215Z,16.60
2018-08-11T19:32:42.649Z,16.46
2018-08-11T19:35:44.819Z,16.30
2018-08-11T19:38:47.525Z,16.16
2018-08-11T19:41:53.490Z,15.94
2018-08-11T19:44:55.809Z,15.72
2018-08-11T19:48:02.710Z,15.53
2018-08-11T19:51:05.202Z,15.52
2018-08-11T19:54:11.442Z,15.51
2018-08-11T19:57:17.270Z,15.46
2018-08-11T20:00:19.965Z,15.43
2018-08-11T20:03:22.244Z,15.28
2018-08-11T20:06:24.479Z,15.12
2018-08-11T20:09:26.806Z,15.05
2018-08-11T20:12:29.154Z,15.10
2018-08-11T20:15:31.625Z,15.15
2018-08-11T20:18:34.555Z,14.97
2018-08-11T20:21:37.769Z,14.78
2018-08-11T20:24:40.102Z,14.55
2018-08-11T20:27:42.428Z,14.42
2018-08-11T20:30:44.765Z,14.29
2018-08-11T20:33:47.034Z,14.13
2018-08-11T20:36:53.822Z,14.01
2018-08-11T20:47:27.881Z,13.94
2018-08-11T20:50:30.219Z,13.76
2018-08-11T20:53:32.489Z,13.44
2018-08-11T20:56:34.807Z,13.35
2018-08-11T20:59:37.077Z,13.35
2018-08-11T21:02:39.306Z,13.50
2018-08-11T21:05:41.635Z,13.58
2018-08-11T21:08:44.260Z,13.47
2018-08-11T21:11:46.500Z,13.38
2018-08-11T21:14:48.764Z,13.27
2018-08-11T21:17:50.935Z,13.15
2018-08-11T21:20:53.200Z,13.00
2018-08-11T21:23:55.612Z,12.95
2018-08-11T21:26:57.783Z,12.88
2018-08-11T21:30:00.014Z,12.81
2018-08-11T21:33:02.285Z,12.77
2018-08-11T21:36:04.753Z,12.56
2018-08-11T21:39:09.360Z,12.23
2018-08-11T21:42:11.654Z,12.06
2018-08-11T21:45:13.852Z,11.95
2018-08-11T21:48:16.347Z,11.96
2018-08-11T21:51:18.643Z,12.07
2018-08-11T21:54:20.793Z,12.25
2018-08-11T21:57:22.949Z,12.34
2018-08-11T22:00:34.018Z,12.37
2018-08-11T22:03:36.294Z,12.26
2018-08-11T22:06:38.568Z,12.18
2018-08-11T22:09:40.756Z,12.15
2018-08-11T22:12:43.106Z,12.16
2018-08-11T22:15:45.437Z,12.18
2018-08-11T22:18:47.805Z,12.16
2018-08-11T22:21:50.261Z,12.12
2018-08-11T22:24:52.531Z,11.97
2018-08-11T22:27:54.832Z,11.75
2018-08-11T22:30:57.114Z,11.66
2018-08-11T22:33:59.319Z,11.65
2018-08-11T22:37:01.710Z,11.67
2018-08-11T22:40:05.038Z,11.72
2018-08-11T22:43:07.244Z,11.76
2018-08-11T22:46:09.590Z,11.80
2018-08-11T22:49:11.873Z,11.87
2018-08-11T22:52:14.252Z,11.89
2018-08-11T22:55:16.624Z,11.80
2018-08-11T22:58:18.880Z,11.77
2018-08-11T23:01:21.121Z,11.82
2018-08-11T23:04:23.373Z,11.75
2018-08-11T23:07:25.663Z,11.69
2018-08-11T23:10:27.939Z,11.59
2018-08-11T23:13:30.218Z,11.51
2018-08-11T23:16:32.474Z,11.34
2018-08-11T23:20:37.855Z,11.02
2018-08-11T23:23:40.084Z,10.94
2018-08-11T23:26:43.108Z,10.99
2018-08-11T23:29:45.353Z,11.08
2018-08-11T23:32:47.645Z,11.16
2018-08-11T23:35:49.974Z,11.15
2018-08-11T23:38:52.345Z,11.14
2018-08-11T23:41:54.699Z,11.11
2018-08-11T23:44:57.284Z,11.01
2018-08-11T23:47:59.512Z,11.00
2018-08-11T23:51:01.867Z,10.95
2018-08-11T23:54:04.107Z,10.90
2018-08-11T23:57:06.553Z,10.85
